createdAt,value
2023-03-14T00:00:16.638Z,2.80
2023-03-14T00:03:03.567Z,2.80
2023-03-14T00:05:30.131Z,2.20
2023-03-14T00:07:56.770Z,3.20
2023-03-14T00:10:23.282Z,3.40
2023-03-14T00:12:49.838Z,3.00
2023-03-14T00:15:16.318Z,3.30
2023-03-14T00:17:44.722Z,2.80
2023-03-14T00:20:12.613Z,2.60
2023-03-14T00:22:40.364Z,2.50
2023-03-14T00:25:11.123Z,2.90
2023-03-14T00:27:38.510Z,3.10
2023-03-14T00:30:08.481Z,2.40
2023-03-14T00:32:35.005Z,2.70
2023-03-14T00:35:01.891Z,3.50
2023-03-14T00:37:28.383Z,3.00
2023-03-14T00:39:55.096Z,3.00
2023-03-14T00:42:21.528Z,2.60
2023-03-14T00:44:48.116Z,2.60
2023-03-14T00:47:14.638Z,3.50
2023-03-14T00:49:43.820Z,3.10
2023-03-14T00:52:10.338Z,2.10
2023-03-14T00:54:36.842Z,2.80
2023-03-14T00:57:03.352Z,2.50
2023-03-14T00:59:29.907Z,3.10
2023-03-14T01:01:59.400Z,2.30
2023-03-14T01:04:25.917Z,3.80
2023-03-14T01:06:52.542Z,3.00
2023-03-14T01:09:19.080Z,3.00
2023-03-14T01:11:46.886Z,2.50
2023-03-14T01:14:14.634Z,2.50
2023-03-14T01:16:41.125Z,2.70
2023-03-14T01:19:10.314Z,2.50
2023-03-14T01:21:37.298Z,3.30
2023-03-14T01:24:06.908Z,2.20
2023-03-14T01:26:35.533Z,3.00
2023-03-14T01:29:04.971Z,3.70
2023-03-14T01:31:31.629Z,3.10
2023-03-14T01:33:58.285Z,2.60
2023-03-14T01:36:24.804Z,2.50
2023-03-14T01:38:51.286Z,2.20
2023-03-14T01:41:26.119Z,2.30
2023-03-14T01:43:53.345Z,3.10
2023-03-14T01:46:46.179Z,2.30
2023-03-14T01:49:35.345Z,2.60
2023-03-14T01:52:12.890Z,3.10
2023-03-14T01:55:19.510Z,3.10
2023-03-14T01:57:56.803Z,2.60
2023-03-14T02:00:24.876Z,2.70
2023-03-14T02:03:00.453Z,2.90
2023-03-14T02:05:33.589Z,2.60
2023-03-14T02:08:04.174Z,3.10
2023-03-14T02:10:41.752Z,3.30
2023-03-14T02:13:12.117Z,2.80
2023-03-14T02:15:39.674Z,3.20
2023-03-14T02:18:08.211Z,2.80
2023-03-14T02:20:37.459Z,3.10
2023-03-14T02:23:05.480Z,2.50
2023-03-14T02:25:41.236Z,2.30
2023-03-14T02:28:08.166Z,2.90
2023-03-14T02:30:35.784Z,3.00
2023-03-14T02:33:13.738Z,3.40
2023-03-14T02:36:05.564Z,2.90
2023-03-14T02:38:42.174Z,3.40
2023-03-14T02:41:08.921Z,3.00
2023-03-14T02:43:35.484Z,2.90
2023-03-14T02:46:05.752Z,2.70
2023-03-14T02:48:39.804Z,2.50
2023-03-14T02:51:08.416Z,3.20
2023-03-14T02:53:37.575Z,3.10
2023-03-14T02:56:05.441Z,3.00
2023-03-14T02:58:32.168Z,3.10
2023-03-14T03:00:58.752Z,3.20
2023-03-14T03:03:25.491Z,2.70
2023-03-14T03:05:55.296Z,2.80
2023-03-14T03:08:26.516Z,3.10
2023-03-14T03:10:53.840Z,2.50
2023-03-14T03:13:20.720Z,2.80
2023-03-14T03:15:47.406Z,2.40
2023-03-14T03:18:13.936Z,2.70
2023-03-14T03:20:40.380Z,2.80
2023-03-14T03:23:06.900Z,1.50
2023-03-14T03:25:33.733Z,2.10
2023-03-14T03:28:01.482Z,2.20
2023-03-14T03:30:28.139Z,2.10
2023-03-14T03:32:54.826Z,2.30
2023-03-14T03:35:21.416Z,1.50
2023-03-14T03:37:47.971Z,1.60
2023-03-14T03:40:14.580Z,1.20
2023-03-14T03:42:41.171Z,1.70
2023-03-14T03:45:08.635Z,2.10
2023-03-14T03:47:35.094Z,1.30
2023-03-14T03:50:01.653Z,1.40
2023-03-14T03:52:28.265Z,1.70
2023-03-14T03:54:54.817Z,2.10
2023-03-14T03:57:21.316Z,2.10
2023-03-14T03:59:47.723Z,1.60
2023-03-14T04:02:14.173Z,1.60
2023-03-14T04:04:40.904Z,1.40
2023-03-14T04:07:07.567Z,1.30
2023-03-14T04:09:34.154Z,1.90
2023-03-14T04:12:00.657Z,2.00
2023-03-14T04:14:27.493Z,1.70
2023-03-14T04:16:53.916Z,1.70
2023-03-14T04:19:21.604Z,1.80
2023-03-14T04:21:50.870Z,1.30
2023-03-14T04:24:17.807Z,1.40
2023-03-14T04:26:44.229Z,1.40
2023-03-14T04:29:12.237Z,1.20
2023-03-14T04:31:39.997Z,1.50
2023-03-14T04:34:06.454Z,1.40
2023-03-14T04:36:32.940Z,1.60
2023-03-14T04:38:59.419Z,1.60
2023-03-14T04:41:26.070Z,1.60
2023-03-14T04:43:52.419Z,1.60
2023-03-14T04:46:19.063Z,1.40
2023-03-14T04:48:45.541Z,1.60
2023-03-14T04:51:12.137Z,1.30
2023-03-14T04:53:38.656Z,1.70
2023-03-14T04:56:06.392Z,1.30
2023-03-14T04:58:32.897Z,1.60
2023-03-14T05:01:05.087Z,1.20
2023-03-14T05:03:31.737Z,1.30
2023-03-14T05:05:59.268Z,1.60
2023-03-14T05:08:25.682Z,1.60
2023-03-14T05:10:57.778Z,1.60
2023-03-14T05:13:24.666Z,1.50
2023-03-14T05:15:51.335Z,1.50
2023-03-14T05:18:18.996Z,1.40
2023-03-14T05:20:45.760Z,1.70
2023-03-14T05:23:12.594Z,1.50
2023-03-14T05:25:39.077Z,0.80
2023-03-14T05:28:05.503Z,1.20
2023-03-14T05:30:32.715Z,1.00
2023-03-14T05:32:59.289Z,1.20
2023-03-14T05:35:25.960Z,1.10
2023-03-14T05:37:52.589Z,1.10
2023-03-14T05:40:19.134Z,1.20
2023-03-14T05:42:45.802Z,1.20
2023-03-14T05:45:12.320Z,1.40
2023-03-14T05:47:38.813Z,1.30
2023-03-14T05:50:05.752Z,1.40
2023-03-14T05:52:32.366Z,1.00
2023-03-14T05:54:58.860Z,1.50
2023-03-14T05:57:25.290Z,1.40
2023-03-14T05:59:51.832Z,1.70
2023-03-14T06:02:18.382Z,1.20
2023-03-14T06:04:44.961Z,1.60
2023-03-14T06:07:11.452Z,1.50
2023-03-14T06:09:38.446Z,1.80
2023-03-14T06:12:05.050Z,1.50
2023-03-14T06:14:32.081Z,1.20
2023-03-14T06:16:59.558Z,1.40
2023-03-14T06:19:26.694Z,1.50
2023-03-14T06:21:53.553Z,1.70
2023-03-14T06:24:20.122Z,1.40
2023-03-14T06:26:47.011Z,1.50
2023-03-14T06:29:13.925Z,1.40
2023-03-14T06:31:40.398Z,2.00
2023-03-14T06:34:07.258Z,1.60
2023-03-14T06:36:33.914Z,1.10
2023-03-14T06:39:00.476Z,1.10
2023-03-14T06:41:27.140Z,2.00
2023-03-14T06:43:55.401Z,1.20
2023-03-14T06:46:23.745Z,1.90
2023-03-14T06:48:50.336Z,1.90
2023-03-14T06:51:16.864Z,1.60
2023-03-14T06:53:43.284Z,1.30
2023-03-14T06:56:09.859Z,1.40
2023-03-14T06:58:36.480Z,1.70
2023-03-14T07:01:03.626Z,1.20
2023-03-14T07:03:35.513Z,0.80
2023-03-14T07:06:01.951Z,1.20
2023-03-14T07:08:28.387Z,0.90
2023-03-14T07:10:57.667Z,0.90
2023-03-14T07:13:24.233Z,1.10
2023-03-14T07:15:50.805Z,1.60
2023-03-14T07:18:17.300Z,1.30
2023-03-14T07:20:46.476Z,1.50
2023-03-14T07:23:12.918Z,1.70
2023-03-14T07:25:39.574Z,1.30
2023-03-14T07:28:06.005Z,1.50
2023-03-14T07:30:33.164Z,1.90
2023-03-14T07:32:59.678Z,2.20
2023-03-14T07:35:26.241Z,2.30
2023-03-14T07:37:52.817Z,2.40
2023-03-14T07:40:20.114Z,2.20
2023-03-14T07:42:47.012Z,1.40
2023-03-14T07:45:13.535Z,1.50
2023-03-14T07:47:40.080Z,1.30
2023-03-14T07:50:08.095Z,1.50
2023-03-14T07:52:34.724Z,1.50
2023-03-14T07:55:01.216Z,1.30
2023-03-14T07:57:27.686Z,1.20
2023-03-14T07:59:54.147Z,1.10
2023-03-14T08:02:22.714Z,1.40
2023-03-14T08:04:49.761Z,1.20
2023-03-14T08:07:16.776Z,0.80
2023-03-14T08:09:44.344Z,1.50
2023-03-14T08:12:10.930Z,2.20
2023-03-14T08:14:37.467Z,1.00
2023-03-14T08:17:05.579Z,1.10
2023-03-14T08:19:31.966Z,1.20
2023-03-14T08:21:58.395Z,0.90
2023-03-14T08:24:24.927Z,1.10
2023-03-14T08:26:51.412Z,1.40
2023-03-14T08:29:17.931Z,1.10
2023-03-14T08:31:44.927Z,1.80
2023-03-14T08:34:11.412Z,1.50
2023-03-14T08:36:38.028Z,1.90
2023-03-14T08:39:07.646Z,1.30
2023-03-14T08:41:40.536Z,1.00
2023-03-14T08:44:11.947Z,0.90
2023-03-14T08:46:38.523Z,1.70
2023-03-14T08:49:05.362Z,2.10
2023-03-14T08:51:32.024Z,1.90
2023-03-14T08:53:58.523Z,2.20
2023-03-14T08:56:26.134Z,2.10
2023-03-14T08:58:52.706Z,2.30
2023-03-14T09:01:19.647Z,2.00
2023-03-14T09:03:47.549Z,2.00
2023-03-14T09:06:14.142Z,1.50
2023-03-14T09:08:40.576Z,2.10
2023-03-14T09:11:09.090Z,1.50
2023-03-14T09:13:36.580Z,2.50
2023-03-14T09:16:04.147Z,3.00
2023-03-14T09:18:30.811Z,1.80
2023-03-14T09:20:57.399Z,1.90
2023-03-14T09:23:23.895Z,1.50
2023-03-14T09:25:56.427Z,1.20
2023-03-14T09:28:23.022Z,2.00
2023-03-14T09:30:50.078Z,1.20
2023-03-14T09:33:17.845Z,1.00
2023-03-14T09:35:44.462Z,1.80
2023-03-14T09:38:10.984Z,2.00
2023-03-14T09:40:38.936Z,2.50
2023-03-14T09:43:06.496Z,2.00
2023-03-14T09:45:40.817Z,1.10
2023-03-14T09:48:26.773Z,1.20
2023-03-14T09:50:57.141Z,2.10
2023-03-14T09:53:31.725Z,1.40
2023-03-14T09:55:59.685Z,1.60
2023-03-14T09:58:27.631Z,1.80
2023-03-14T10:00:58.686Z,1.80
2023-03-14T10:03:31.525Z,1.90
2023-03-14T10:05:58.455Z,1.60
2023-03-14T10:08:25.521Z,2.40
2023-03-14T10:10:54.024Z,2.50
2023-03-14T10:13:28.275Z,1.60
2023-03-14T10:16:03.539Z,1.50
2023-03-14T10:18:34.536Z,1.70
2023-03-14T10:21:31.303Z,2.40
2023-03-14T10:24:26.906Z,2.20
2023-03-14T10:27:19.389Z,2.00
2023-03-14T10:29:59.908Z,1.70
2023-03-14T10:32:39.050Z,1.60
2023-03-14T10:35:14.865Z,2.20
2023-03-14T10:38:01.623Z,2.20
2023-03-14T10:40:31.493Z,1.80
2023-03-14T10:43:00.781Z,1.60
2023-03-14T10:45:46.115Z,2.50
2023-03-14T10:48:15.293Z,1.30
2023-03-14T10:50:57.517Z,2.10
2023-03-14T10:53:27.556Z,2.00
2023-03-14T10:55:57.248Z,2.40
2023-03-14T10:58:27.843Z,2.50
2023-03-14T11:01:15.530Z,2.50
2023-03-14T11:03:55.592Z,2.60
2023-03-14T11:06:38.940Z,2.60
2023-03-14T11:09:24.083Z,1.60
2023-03-14T11:11:50.478Z,2.40
2023-03-14T11:14:39.331Z,1.60
2023-03-14T11:17:19.842Z,2.20
2023-03-14T11:20:26.872Z,1.90
2023-03-14T11:23:34.947Z,1.40
2023-03-14T11:26:26.814Z,1.90
2023-03-14T11:29:37.038Z,2.00
2023-03-14T11:32:19.969Z,1.20
2023-03-14T11:34:55.251Z,1.60
2023-03-14T11:37:36.915Z,2.10
2023-03-14T11:40:19.461Z,1.30
2023-03-14T11:42:59.423Z,1.60
2023-03-14T11:45:34.898Z,1.60
2023-03-14T11:48:50.349Z,1.60
2023-03-14T11:51:31.771Z,1.70
2023-03-14T11:54:19.060Z,1.10
2023-03-14T11:56:58.600Z,1.50
2023-03-14T11:59:42.952Z,1.60
2023-03-14T12:02:22.647Z,1.40
2023-03-14T12:05:30.308Z,2.00
2023-03-14T12:08:09.145Z,1.60
2023-03-14T12:10:41.625Z,2.10
2023-03-14T12:13:12.041Z,2.10
2023-03-14T12:15:51.493Z,1.90
2023-03-14T12:18:29.584Z,1.90
2023-03-14T12:21:11.077Z,2.00
2023-03-14T12:23:49.530Z,2.20
2023-03-14T12:26:20.120Z,1.60
2023-03-14T12:29:09.486Z,1.50
2023-03-14T12:31:49.388Z,1.50
2023-03-14T12:34:15.739Z,1.10
2023-03-14T12:36:48.958Z,2.40
2023-03-14T12:39:33.585Z,1.40
2023-03-14T12:42:19.790Z,1.80
2023-03-14T12:44:49.219Z,1.20
2023-03-14T12:47:18.469Z,1.40
2023-03-14T12:49:52.738Z,1.40
2023-03-14T12:52:45.808Z,1.10
2023-03-14T12:55:34.625Z,1.60
2023-03-14T12:58:45.386Z,1.00
2023-03-14T13:01:20.352Z,1.40
2023-03-14T13:04:07.678Z,1.20
2023-03-14T13:06:59.683Z,1.10
2023-03-14T13:09:32.881Z,0.90
2023-03-14T13:12:28.097Z,1.50
2023-03-14T13:14:54.600Z,1.20
2023-03-14T13:17:42.115Z,0.90
2023-03-14T13:20:57.574Z,0.90
2023-03-14T13:23:31.772Z,1.30
2023-03-14T13:26:01.363Z,0.90
2023-03-14T13:28:30.654Z,0.80
2023-03-14T13:31:05.158Z,1.10
2023-03-14T13:33:35.277Z,0.80
2023-03-14T13:36:06.226Z,1.40
2023-03-14T13:38:36.840Z,1.50
2023-03-14T13:41:08.609Z,1.20
2023-03-14T13:43:44.143Z,1.10
2023-03-14T13:46:25.775Z,0.70
2023-03-14T13:48:58.429Z,1.20
2023-03-14T13:51:29.774Z,0.90
2023-03-14T13:53:56.562Z,1.00
2023-03-14T13:56:29.382Z,0.70
2023-03-14T13:58:56.333Z,1.30
2023-03-14T14:01:27.787Z,0.80
2023-03-14T14:03:58.405Z,1.10
2023-03-14T14:06:33.629Z,1.30
2023-03-14T14:09:14.536Z,0.90
2023-03-14T14:12:11.284Z,0.50
2023-03-14T14:15:16.112Z,0.60
2023-03-14T14:18:01.077Z,1.00
2023-03-14T14:20:35.920Z,1.00
2023-03-14T14:23:10.064Z,0.60
2023-03-14T14:25:39.977Z,1.00
2023-03-14T14:28:37.730Z,1.00
2023-03-14T14:31:25.665Z,0.60
2023-03-14T14:34:04.138Z,0.70
2023-03-14T14:36:40.973Z,0.80
2023-03-14T14:39:27.273Z,0.70
2023-03-14T14:41:53.851Z,0.70
2023-03-14T14:44:34.235Z,1.10
2023-03-14T14:47:04.683Z,1.00
2023-03-14T14:49:33.917Z,1.10
2023-03-14T14:52:17.725Z,1.10
2023-03-14T14:54:54.953Z,1.00
2023-03-14T14:57:30.665Z,1.40
2023-03-14T15:00:11.598Z,1.50
2023-03-14T15:02:45.776Z,1.10
2023-03-14T15:05:25.150Z,2.20
2023-03-14T15:07:52.068Z,2.00
2023-03-14T15:10:23.311Z,1.70
2023-03-14T15:12:49.878Z,1.10
2023-03-14T15:15:17.891Z,2.60
2023-03-14T15:17:44.733Z,1.10
2023-03-14T15:20:15.747Z,1.00
2023-03-14T15:22:43.268Z,1.40
2023-03-14T15:25:18.637Z,0.90
2023-03-14T15:27:53.424Z,1.00
2023-03-14T15:30:20.116Z,1.40
2023-03-14T15:32:46.965Z,0.90
2023-03-14T15:35:17.346Z,1.30
2023-03-14T15:37:45.243Z,1.00
2023-03-14T15:40:14.218Z,0.90
2023-03-14T15:42:42.049Z,0.90
2023-03-14T15:45:09.521Z,0.70
2023-03-14T15:47:36.420Z,0.80
2023-03-14T15:50:04.224Z,1.10
2023-03-14T15:52:31.017Z,1.20
2023-03-14T15:54:57.412Z,1.30
2023-03-14T15:57:25.131Z,0.90
2023-03-14T15:59:51.760Z,0.90
2023-03-14T16:02:18.238Z,1.00
2023-03-14T16:04:44.724Z,1.40
2023-03-14T16:07:14.354Z,1.30
2023-03-14T16:09:40.976Z,2.30
2023-03-14T16:12:09.099Z,1.90
2023-03-14T16:14:35.786Z,1.60
2023-03-14T16:17:02.309Z,1.50
2023-03-14T16:19:31.177Z,1.00
2023-03-14T16:21:57.811Z,1.00
2023-03-14T16:24:24.281Z,1.60
2023-03-14T16:26:50.879Z,2.70
2023-03-14T16:29:17.344Z,1.90
2023-03-14T16:31:44.761Z,1.60
2023-03-14T16:34:12.105Z,1.40
2023-03-14T16:36:38.686Z,1.10
2023-03-14T16:39:05.528Z,0.70
2023-03-14T16:41:32.172Z,1.30
2023-03-14T16:44:01.187Z,1.30
2023-03-14T16:46:29.790Z,1.70
2023-03-14T16:48:57.311Z,2.60
2023-03-14T16:51:23.966Z,2.60
2023-03-14T16:53:50.533Z,2.80
2023-03-14T16:56:17.719Z,2.90
2023-03-14T16:58:44.881Z,3.50
2023-03-14T17:01:17.203Z,4.00
2023-03-14T17:03:49.574Z,3.70
2023-03-14T17:06:26.544Z,2.00
2023-03-14T17:08:55.815Z,2.00
2023-03-14T17:11:23.531Z,1.60
2023-03-14T17:13:50.464Z,1.00
2023-03-14T17:16:17.576Z,1.30
2023-03-14T17:18:44.173Z,1.60
2023-03-14T17:21:11.098Z,1.50
2023-03-14T17:23:37.993Z,2.20
2023-03-14T17:26:07.310Z,1.70
2023-03-14T17:28:36.774Z,1.80
2023-03-14T17:31:15.172Z,1.90
2023-03-14T17:33:42.465Z,2.00
2023-03-14T17:36:13.222Z,1.80
2023-03-14T17:38:40.381Z,1.50
2023-03-14T17:41:10.960Z,1.70
2023-03-14T17:43:39.194Z,1.90
2023-03-14T17:46:11.085Z,1.50
2023-03-14T17:48:38.160Z,1.40
2023-03-14T17:51:05.249Z,1.30
2023-03-14T17:53:32.042Z,1.50
2023-03-14T17:56:02.566Z,1.90
2023-03-14T17:58:35.922Z,2.10
2023-03-14T18:01:16.972Z,2.20
2023-03-14T18:03:45.612Z,2.80
2023-03-14T18:06:14.961Z,2.70
2023-03-14T18:08:44.361Z,2.80
2023-03-14T18:11:12.839Z,3.10
2023-03-14T18:13:41.148Z,3.10
2023-03-14T18:16:13.633Z,3.40
2023-03-14T18:18:48.179Z,3.70
2023-03-14T18:21:17.835Z,3.40
2023-03-14T18:23:45.326Z,3.30
2023-03-14T18:26:12.712Z,3.30
2023-03-14T18:28:39.320Z,3.00
2023-03-14T18:31:10.421Z,3.10
2023-03-14T18:33:39.670Z,3.30
2023-03-14T18:36:11.287Z,3.60
2023-03-14T18:38:42.528Z,3.50
2023-03-14T18:41:13.204Z,4.80
2023-03-14T18:43:41.794Z,4.40
2023-03-14T18:46:13.545Z,4.10
2023-03-14T18:48:41.908Z,4.30
2023-03-14T18:51:11.783Z,4.40
2023-03-14T18:53:38.932Z,5.20
2023-03-14T18:56:06.454Z,4.20
2023-03-14T18:58:33.393Z,3.60
2023-03-14T19:01:03.039Z,4.20
2023-03-14T19:06:17.556Z,3.50
2023-03-14T19:08:44.142Z,4.40
2023-03-14T19:11:14.079Z,1.80
2023-03-14T19:13:42.703Z,0.90
2023-03-14T19:16:15.879Z,0.80
2023-03-14T19:18:42.647Z,1.00
2023-03-14T19:21:12.829Z,0.70
2023-03-14T19:23:42.513Z,0.60
2023-03-14T19:26:09.380Z,0.60
2023-03-14T19:28:36.644Z,0.50
2023-03-14T19:31:04.976Z,0.50
2023-03-14T19:33:31.924Z,0.30
2023-03-14T19:36:01.971Z,0.50
2023-03-14T19:38:28.672Z,0.20
2023-03-14T19:40:58.424Z,0.30
2023-03-14T19:43:26.868Z,0.20
2023-03-14T19:46:16.360Z,0.20
2023-03-14T19:48:45.576Z,0.20
2023-03-14T19:51:15.020Z,0.20
2023-03-14T19:53:43.575Z,0.20
2023-03-14T19:56:11.442Z,0.30
2023-03-14T19:58:39.839Z,0.10
2023-03-14T20:01:08.343Z,0.20
2023-03-14T20:03:36.530Z,0.10
2023-03-14T20:06:12.392Z,1.00
2023-03-14T20:08:40.553Z,0.50
2023-03-14T20:11:08.253Z,0.50
2023-03-14T20:13:35.345Z,0.20
2023-03-14T20:16:09.956Z,0.40
2023-03-14T20:18:37.404Z,0.30
2023-03-14T20:21:11.994Z,0.60
2023-03-14T20:23:39.265Z,0.40
2023-03-14T20:26:06.013Z,0.40
2023-03-14T20:28:32.858Z,0.70
2023-03-14T20:31:00.541Z,0.30
2023-03-14T20:33:27.392Z,0.40
2023-03-14T20:35:59.910Z,0.20
2023-03-14T20:38:28.124Z,0.30
2023-03-14T20:40:59.946Z,0.30
2023-03-14T20:43:28.680Z,0.20
2023-03-14T20:45:58.610Z,0.40
2023-03-14T20:48:27.884Z,0.30
2023-03-14T20:50:55.087Z,0.30
2023-03-14T20:53:23.494Z,0.20
2023-03-14T20:55:51.500Z,0.20
2023-03-14T20:58:18.258Z,0.20
2023-03-14T21:00:48.283Z,0.10
2023-03-14T21:03:17.259Z,0.20
2023-03-14T21:05:46.357Z,0.20
2023-03-14T21:08:20.877Z,0.20
2023-03-14T21:10:52.465Z,0.10
2023-03-14T21:13:19.462Z,0.50
2023-03-14T21:15:46.294Z,0.30
2023-03-14T21:18:13.032Z,0.30
2023-03-14T21:20:41.636Z,0.20
2023-03-14T21:23:11.138Z,0.10
2023-03-14T21:25:38.308Z,0.10
2023-03-14T21:28:05.184Z,0.10
2023-03-14T21:30:34.012Z,0.20
2023-03-14T21:33:02.006Z,0.60
2023-03-14T21:35:29.833Z,0.20
2023-03-14T21:37:56.778Z,0.20
2023-03-14T21:40:23.869Z,0.70
2023-03-14T21:42:53.801Z,0.10
2023-03-14T21:45:26.384Z,0.20
2023-03-14T21:47:54.794Z,0.20
2023-03-14T21:50:23.947Z,0.30
2023-03-14T21:52:56.034Z,0.40
2023-03-14T21:55:24.727Z,0.40
2023-03-14T21:57:53.760Z,0.30
2023-03-14T22:00:21.275Z,0.40
2023-03-14T22:03:11.609Z,0.20
2023-03-14T22:05:45.513Z,0.20
2023-03-14T22:08:15.030Z,0.20
2023-03-14T22:10:53.158Z,0.40
2023-03-14T22:14:02.984Z,0.40
2023-03-14T22:16:29.719Z,0.20
2023-03-14T22:18:56.368Z,0.30
2023-03-14T22:21:23.121Z,0.50
2023-03-14T22:23:50.275Z,0.20
2023-03-14T22:26:17.401Z,0.40
2023-03-14T22:28:44.134Z,0.20
2023-03-14T22:31:10.780Z,0.30
2023-03-14T22:33:37.556Z,0.50
2023-03-14T22:36:05.348Z,0.40
2023-03-14T22:38:34.476Z,0.20
2023-03-14T22:41:03.006Z,0.40
2023-03-14T22:43:30.330Z,0.20
2023-03-14T22:46:06.056Z,0.50
2023-03-14T22:48:33.762Z,0.30
2023-03-14T22:51:10.403Z,0.60
2023-03-14T22:53:37.650Z,0.60
2023-03-14T22:56:08.700Z,0.80
2023-03-14T22:58:35.964Z,0.30
2023-03-14T23:01:04.535Z,0.30
2023-03-14T23:03:31.434Z,0.60
2023-03-14T23:05:58.083Z,0.40
2023-03-14T23:08:27.572Z,0.30
2023-03-14T23:11:03.762Z,0.40
2023-03-14T23:13:30.913Z,0.20
2023-03-14T23:15:58.676Z,0.30
2023-03-14T23:18:27.018Z,0.30
2023-03-14T23:21:09.861Z,0.80
2023-03-14T23:23:37.214Z,0.50
2023-03-14T23:26:06.804Z,0.40
2023-03-14T23:28:33.717Z,0.50
2023-03-14T23:31:01.219Z,0.20
2023-03-14T23:33:28.882Z,0.80
2023-03-14T23:35:55.604Z,0.80
2023-03-14T23:38:27.480Z,0.50
2023-03-14T23:40:54.250Z,0.60
2023-03-14T23:43:21.227Z,0.80
2023-03-14T23:45:56.432Z,0.70
2023-03-14T23:48:33.182Z,0.50
2023-03-14T23:51:03.837Z,0.40
2023-03-14T23:53:31.919Z,0.50
2023-03-14T23:55:59.069Z,1.00
2023-03-14T23:58:26.118Z,0.50
